Johnsons Bayou, Louisiana
Current Conditions -  °F | °C
As of 5:15 PM on Thursday 23 Oct 2014 (Local Time) from KORG Reporting Station
Clear Clear  
Wind Chill: 73°   Ceiling: Unl
Heat Index: 73°   Visibility: 10mi
Dew Point: 53°   Wind: 5mph
Humidity: 50%   Direction: 350°N
Pressure: 30.08"   Gusts: NA
Location:  29.8391°N, 93.6411°W
Report Text: KORG 232215Z AUTO 35004KT 10SM CLR 23/12 A3008 RMK AO2 T02250115
Loading
Personal Weather Stations






























Interactive Weather Map
Tropical Storm Tracking
New forecast layout! Learn more

10-Day Weather Forecast

Advertisements
Track Severe Weather on mobile